Terminal Aerodrome Forecast
Issued by NWS Bismarck, ND

Home | Current Version | Previous Version | Graphics & Text | Print | Product List | Glossary On
Versions: 1 2 3 4 5 6 7 8 9 10 11 12 13 14 15 16 17 18 19
294
FTUS43 KBIS 071027 AAB
TAFBIS
TAF AMD
KBIS 071027Z 0710/0806 28022G32KT P6SM SCT060 WS010/33035KT
     FM071100 30025G40KT P6SM VCSH OVC035
     FM071200 31025G38KT 6SM -SHSN BLSN OVC035
     FM071800 32034G52KT 5SM -SHSN BLSN OVC020
     FM072200 32035G49KT P6SM OVC015=

USA.gov is the U.S. government's official web portal to all federal, state and local government web resources and services.